sensor_id;sensor_type;location;lat;lon;timestamp;P1;durP1;ratioP1;P2;durP2;ratioP2
7971;SDS011;4031;49.758;6.120;2022-12-18T00:01:25;7.85;;;5.78;;
7971;SDS011;4031;49.758;6.120;2022-12-18T00:03:54;7.47;;;6.88;;
7971;SDS011;4031;49.758;6.120;2022-12-18T00:06:20;5.47;;;4.03;;
7971;SDS011;4031;49.758;6.120;2022-12-18T00:08:47;11.20;;;5.15;;
7971;SDS011;4031;49.758;6.120;2022-12-18T00:11:14;9.23;;;7.25;;
7971;SDS011;4031;49.758;6.120;2022-12-18T00:13:43;5.45;;;4.93;;
7971;SDS011;4031;49.758;6.120;2022-12-18T00:16:11;11.52;;;5.70;;
7971;SDS011;4031;49.758;6.120;2022-12-18T00:18:43;3.35;;;3.15;;
7971;SDS011;4031;49.758;6.120;2022-12-18T00:21:10;6.93;;;4.82;;
7971;SDS011;4031;49.758;6.120;2022-12-18T00:23:37;3.47;;;3.17;;
7971;SDS011;4031;49.758;6.120;2022-12-18T00:26:06;10.35;;;5.13;;
7971;SDS011;4031;49.758;6.120;2022-12-18T00:28:40;6.07;;;4.97;;
7971;SDS011;4031;49.758;6.120;2022-12-18T00:31:08;9.25;;;5.43;;
7971;SDS011;4031;49.758;6.120;2022-12-18T00:33:40;9.27;;;6.32;;
7971;SDS011;4031;49.758;6.120;2022-12-18T00:36:10;6.65;;;5.60;;
7971;SDS011;4031;49.758;6.120;2022-12-18T00:38:45;6.32;;;5.70;;
7971;SDS011;4031;49.758;6.120;2022-12-18T00:41:11;9.60;;;5.47;;
7971;SDS011;4031;49.758;6.120;2022-12-18T00:43:59;18.13;;;6.78;;
7971;SDS011;4031;49.758;6.120;2022-12-18T00:46:25;5.73;;;5.27;;
7971;SDS011;4031;49.758;6.120;2022-12-18T00:48:50;6.90;;;5.17;;
7971;SDS011;4031;49.758;6.120;2022-12-18T00:51:16;15.10;;;5.40;;
7971;SDS011;4031;49.758;6.120;2022-12-18T00:53:42;5.03;;;4.63;;
7971;SDS011;4031;49.758;6.120;2022-12-18T00:56:07;4.47;;;4.07;;
7971;SDS011;4031;49.758;6.120;2022-12-18T00:58:36;11.83;;;5.23;;
7971;SDS011;4031;49.758;6.120;2022-12-18T01:01:03;17.45;;;8.38;;
7971;SDS011;4031;49.758;6.120;2022-12-18T01:03:30;10.75;;;9.82;;
7971;SDS011;4031;49.758;6.120;2022-12-18T01:05:56;16.57;;;9.73;;
7971;SDS011;4031;49.758;6.120;2022-12-18T01:08:22;14.67;;;7.07;;
7971;SDS011;4031;49.758;6.120;2022-12-18T01:10:48;17.35;;;8.27;;
7971;SDS011;4031;49.758;6.120;2022-12-18T01:13:14;13.83;;;9.60;;
7971;SDS011;4031;49.758;6.120;2022-12-18T01:15:40;11.93;;;8.40;;
7971;SDS011;4031;49.758;6.120;2022-12-18T01:18:06;13.27;;;7.17;;
7971;SDS011;4031;49.758;6.120;2022-12-18T01:20:32;16.15;;;7.90;;
7971;SDS011;4031;49.758;6.120;2022-12-18T01:22:58;11.87;;;6.37;;
7971;SDS011;4031;49.758;6.120;2022-12-18T01:25:23;8.93;;;6.30;;
7971;SDS011;4031;49.758;6.120;2022-12-18T01:27:50;7.15;;;6.45;;
7971;SDS011;4031;49.758;6.120;2022-12-18T01:30:15;12.67;;;8.33;;
7971;SDS011;4031;49.758;6.120;2022-12-18T01:32:41;12.50;;;7.00;;
7971;SDS011;4031;49.758;6.120;2022-12-18T01:35:07;8.10;;;7.10;;
7971;SDS011;4031;49.758;6.120;2022-12-18T01:37:33;7.47;;;6.05;;
7971;SDS011;4031;49.758;6.120;2022-12-18T01:39:59;6.10;;;5.63;;
7971;SDS011;4031;49.758;6.120;2022-12-18T01:42:24;17.43;;;8.43;;
7971;SDS011;4031;49.758;6.120;2022-12-18T01:47:46;11.02;;;5.30;;
7971;SDS011;4031;49.758;6.120;2022-12-18T01:50:25;9.30;;;7.40;;
7971;SDS011;4031;49.758;6.120;2022-12-18T01:52:58;11.93;;;8.20;;
7971;SDS011;4031;49.758;6.120;2022-12-18T01:55:29;11.82;;;6.50;;
7971;SDS011;4031;49.758;6.120;2022-12-18T01:58:01;8.45;;;3.72;;
7971;SDS011;4031;49.758;6.120;2022-12-18T02:00:27;13.43;;;7.90;;
7971;SDS011;4031;49.758;6.120;2022-12-18T02:02:54;10.13;;;5.97;;
7971;SDS011;4031;49.758;6.120;2022-12-18T02:05:32;10.23;;;4.00;;
7971;SDS011;4031;49.758;6.120;2022-12-18T02:08:20;6.03;;;3.50;;
7971;SDS011;4031;49.758;6.120;2022-12-18T02:11:05;6.25;;;4.28;;
7971;SDS011;4031;49.758;6.120;2022-12-18T02:13:41;3.83;;;3.53;;
7971;SDS011;4031;49.758;6.120;2022-12-18T02:27:51;14.18;;;6.18;;
7971;SDS011;4031;49.758;6.120;2022-12-18T02:30:19;6.43;;;5.90;;
7971;SDS011;4031;49.758;6.120;2022-12-18T02:32:50;14.45;;;6.22;;
7971;SDS011;4031;49.758;6.120;2022-12-18T02:35:25;9.05;;;4.38;;
7971;SDS011;4031;49.758;6.120;2022-12-18T02:37:54;6.97;;;6.15;;
7971;SDS011;4031;49.758;6.120;2022-12-18T02:40:21;15.02;;;6.15;;
7971;SDS011;4031;49.758;6.120;2022-12-18T02:42:49;11.20;;;5.75;;
7971;SDS011;4031;49.758;6.120;2022-12-18T02:45:15;4.37;;;4.07;;
7971;SDS011;4031;49.758;6.120;2022-12-18T02:47:42;6.50;;;5.90;;
7971;SDS011;4031;49.758;6.120;2022-12-18T02:53:09;5.80;;;5.35;;
7971;SDS011;4031;49.758;6.120;2022-12-18T02:56:20;7.43;;;5.53;;
7971;SDS011;4031;49.758;6.120;2022-12-18T02:58:59;18.05;;;5.63;;
7971;SDS011;4031;49.758;6.120;2022-12-18T03:04:08;9.80;;;6.47;;
7971;SDS011;4031;49.758;6.120;2022-12-18T03:07:15;10.73;;;9.55;;
7971;SDS011;4031;49.758;6.120;2022-12-18T03:09:49;19.50;;;8.32;;
7971;SDS011;4031;49.758;6.120;2022-12-18T03:12:23;16.95;;;8.10;;
7971;SDS011;4031;49.758;6.120;2022-12-18T03:15:17;10.32;;;8.23;;
7971;SDS011;4031;49.758;6.120;2022-12-18T03:17:51;12.45;;;7.32;;
7971;SDS011;4031;49.758;6.120;2022-12-18T03:20:23;12.48;;;8.40;;
7971;SDS011;4031;49.758;6.120;2022-12-18T03:22:57;10.98;;;6.68;;
7971;SDS011;4031;49.758;6.120;2022-12-18T03:25:30;16.42;;;7.85;;
7971;SDS011;4031;49.758;6.120;2022-12-18T03:27:58;4.68;;;3.65;;
7971;SDS011;4031;49.758;6.120;2022-12-18T03:30:26;17.95;;;9.90;;
7971;SDS011;4031;49.758;6.120;2022-12-18T03:35:46;15.10;;;7.75;;
7971;SDS011;4031;49.758;6.120;2022-12-18T03:38:12;4.07;;;3.78;;
7971;SDS011;4031;49.758;6.120;2022-12-18T03:43:25;6.65;;;5.32;;
7971;SDS011;4031;49.758;6.120;2022-12-18T03:46:15;13.98;;;6.65;;
7971;SDS011;4031;49.758;6.120;2022-12-18T03:48:52;10.45;;;7.95;;
7971;SDS011;4031;49.758;6.120;2022-12-18T03:51:28;5.05;;;4.10;;
7971;SDS011;4031;49.758;6.120;2022-12-18T03:54:03;7.28;;;6.72;;
7971;SDS011;4031;49.758;6.120;2022-12-18T03:56:35;4.93;;;4.53;;
7971;SDS011;4031;49.758;6.120;2022-12-18T03:59:07;4.43;;;4.03;;
7971;SDS011;4031;49.758;6.120;2022-12-18T04:01:41;3.10;;;2.83;;
7971;SDS011;4031;49.758;6.120;2022-12-18T04:04:11;4.85;;;2.92;;
7971;SDS011;4031;49.758;6.120;2022-12-18T04:06:39;7.63;;;5.88;;
7971;SDS011;4031;49.758;6.120;2022-12-18T04:09:07;7.85;;;6.30;;
7971;SDS011;4031;49.758;6.120;2022-12-18T04:11:33;11.48;;;8.15;;
7971;SDS011;4031;49.758;6.120;2022-12-18T04:13:59;8.70;;;6.80;;
7971;SDS011;4031;49.758;6.120;2022-12-18T04:16:25;9.80;;;5.63;;
7971;SDS011;4031;49.758;6.120;2022-12-18T04:18:51;6.63;;;3.35;;
7971;SDS011;4031;49.758;6.120;2022-12-18T04:21:18;9.35;;;6.13;;
7971;SDS011;4031;49.758;6.120;2022-12-18T04:23:45;9.90;;;7.65;;
7971;SDS011;4031;49.758;6.120;2022-12-18T04:26:10;14.53;;;8.00;;
7971;SDS011;4031;49.758;6.120;2022-12-18T04:28:36;4.68;;;4.22;;
7971;SDS011;4031;49.758;6.120;2022-12-18T04:31:02;18.67;;;9.23;;
7971;SDS011;4031;49.758;6.120;2022-12-18T04:33:28;4.67;;;4.23;;
7971;SDS011;4031;49.758;6.120;2022-12-18T04:35:54;4.20;;;3.90;;
7971;SDS011;4031;49.758;6.120;2022-12-18T04:38:19;5.80;;;5.30;;
7971;SDS011;4031;49.758;6.120;2022-12-18T04:40:45;5.53;;;4.27;;
7971;SDS011;4031;49.758;6.120;2022-12-18T04:43:11;5.10;;;4.80;;
7971;SDS011;4031;49.758;6.120;2022-12-18T04:45:37;9.73;;;4.60;;
7971;SDS011;4031;49.758;6.120;2022-12-18T04:48:03;10.30;;;6.00;;
7971;SDS011;4031;49.758;6.120;2022-12-18T04:50:29;6.32;;;5.55;;
7971;SDS011;4031;49.758;6.120;2022-12-18T04:52:55;21.67;;;7.70;;
7971;SDS011;4031;49.758;6.120;2022-12-18T04:55:22;7.13;;;5.63;;
7971;SDS011;4031;49.758;6.120;2022-12-18T04:57:49;11.82;;;6.22;;
7971;SDS011;4031;49.758;6.120;2022-12-18T05:00:15;7.50;;;5.90;;
7971;SDS011;4031;49.758;6.120;2022-12-18T05:02:41;4.88;;;4.15;;
7971;SDS011;4031;49.758;6.120;2022-12-18T05:05:07;10.90;;;4.23;;
7971;SDS011;4031;49.758;6.120;2022-12-18T05:07:33;4.97;;;4.60;;
7971;SDS011;4031;49.758;6.120;2022-12-18T05:09:59;13.80;;;7.07;;
7971;SDS011;4031;49.758;6.120;2022-12-18T05:12:25;22.70;;;8.20;;
7971;SDS011;4031;49.758;6.120;2022-12-18T05:14:51;7.00;;;6.30;;
7971;SDS011;4031;49.758;6.120;2022-12-18T05:17:17;6.05;;;3.65;;
7971;SDS011;4031;49.758;6.120;2022-12-18T05:19:43;10.18;;;8.10;;
7971;SDS011;4031;49.758;6.120;2022-12-18T05:22:09;9.03;;;5.00;;
7971;SDS011;4031;49.758;6.120;2022-12-18T05:24:35;6.30;;;5.65;;
7971;SDS011;4031;49.758;6.120;2022-12-18T05:27:01;16.75;;;4.65;;
7971;SDS011;4031;49.758;6.120;2022-12-18T05:29:27;15.90;;;5.77;;
7971;SDS011;4031;49.758;6.120;2022-12-18T05:31:52;3.27;;;3.07;;
7971;SDS011;4031;49.758;6.120;2022-12-18T05:34:18;4.53;;;4.10;;
7971;SDS011;4031;49.758;6.120;2022-12-18T05:36:44;9.70;;;4.43;;
7971;SDS011;4031;49.758;6.120;2022-12-18T05:39:09;10.17;;;7.10;;
7971;SDS011;4031;49.758;6.120;2022-12-18T05:41:35;5.50;;;4.23;;
7971;SDS011;4031;49.758;6.120;2022-12-18T05:44:01;11.43;;;6.60;;
7971;SDS011;4031;49.758;6.120;2022-12-18T05:46:27;8.90;;;5.37;;
7971;SDS011;4031;49.758;6.120;2022-12-18T05:48:53;5.60;;;4.37;;
7971;SDS011;4031;49.758;6.120;2022-12-18T05:51:19;10.77;;;4.73;;
7971;SDS011;4031;49.758;6.120;2022-12-18T05:53:46;4.95;;;2.88;;
7971;SDS011;4031;49.758;6.120;2022-12-18T05:56:14;4.88;;;4.38;;
7971;SDS011;4031;49.758;6.120;2022-12-18T05:58:44;4.38;;;3.97;;
7971;SDS011;4031;49.758;6.120;2022-12-18T06:01:12;8.80;;;4.65;;
7971;SDS011;4031;49.758;6.120;2022-12-18T06:03:41;7.10;;;4.25;;
7971;SDS011;4031;49.758;6.120;2022-12-18T06:06:17;10.03;;;6.60;;
7971;SDS011;4031;49.758;6.120;2022-12-18T06:08:50;7.38;;;4.93;;
7971;SDS011;4031;49.758;6.120;2022-12-18T06:11:17;5.47;;;5.05;;
7971;SDS011;4031;49.758;6.120;2022-12-18T06:13:46;2.80;;;2.60;;
7971;SDS011;4031;49.758;6.120;2022-12-18T06:16:16;4.93;;;4.05;;
7971;SDS011;4031;49.758;6.120;2022-12-18T06:18:42;3.33;;;2.73;;
7971;SDS011;4031;49.758;6.120;2022-12-18T06:21:07;5.33;;;4.93;;
7971;SDS011;4031;49.758;6.120;2022-12-18T06:23:33;9.33;;;6.07;;
7971;SDS011;4031;49.758;6.120;2022-12-18T06:26:03;6.10;;;4.00;;
7971;SDS011;4031;49.758;6.120;2022-12-18T06:28:33;3.47;;;3.22;;
7971;SDS011;4031;49.758;6.120;2022-12-18T06:30:59;10.50;;;6.23;;
7971;SDS011;4031;49.758;6.120;2022-12-18T06:33:28;15.00;;;5.67;;
7971;SDS011;4031;49.758;6.120;2022-12-18T06:35:54;13.90;;;6.35;;
7971;SDS011;4031;49.758;6.120;2022-12-18T06:38:25;9.68;;;6.40;;
7971;SDS011;4031;49.758;6.120;2022-12-18T06:40:51;9.53;;;8.57;;
7971;SDS011;4031;49.758;6.120;2022-12-18T06:43:17;7.23;;;6.60;;
7971;SDS011;4031;49.758;6.120;2022-12-18T06:45:42;8.33;;;4.90;;
7971;SDS011;4031;49.758;6.120;2022-12-18T06:48:08;11.83;;;6.73;;
7971;SDS011;4031;49.758;6.120;2022-12-18T06:50:34;6.77;;;5.23;;
7971;SDS011;4031;49.758;6.120;2022-12-18T06:53:00;10.70;;;6.60;;
7971;SDS011;4031;49.758;6.120;2022-12-18T06:55:25;12.33;;;4.20;;
7971;SDS011;4031;49.758;6.120;2022-12-18T06:57:51;9.10;;;5.60;;
7971;SDS011;4031;49.758;6.120;2022-12-18T07:00:17;8.23;;;6.03;;
7971;SDS011;4031;49.758;6.120;2022-12-18T07:02:43;9.18;;;5.60;;
7971;SDS011;4031;49.758;6.120;2022-12-18T07:05:09;3.63;;;3.30;;
7971;SDS011;4031;49.758;6.120;2022-12-18T07:07:34;8.43;;;6.00;;
7971;SDS011;4031;49.758;6.120;2022-12-18T07:10:00;8.53;;;5.37;;
7971;SDS011;4031;49.758;6.120;2022-12-18T07:12:26;3.43;;;3.13;;
7971;SDS011;4031;49.758;6.120;2022-12-18T07:14:52;3.70;;;3.38;;
7971;SDS011;4031;49.758;6.120;2022-12-18T07:17:18;3.00;;;2.80;;
7971;SDS011;4031;49.758;6.120;2022-12-18T07:19:44;2.67;;;2.57;;
7971;SDS011;4031;49.758;6.120;2022-12-18T07:22:10;3.13;;;2.93;;
7971;SDS011;4031;49.758;6.120;2022-12-18T07:24:35;13.90;;;6.10;;
7971;SDS011;4031;49.758;6.120;2022-12-18T07:27:01;4.03;;;3.50;;
7971;SDS011;4031;49.758;6.120;2022-12-18T07:29:27;5.33;;;2.83;;
7971;SDS011;4031;49.758;6.120;2022-12-18T07:31:53;5.43;;;5.03;;
7971;SDS011;4031;49.758;6.120;2022-12-18T07:34:19;3.40;;;3.17;;
7971;SDS011;4031;49.758;6.120;2022-12-18T07:36:44;5.33;;;5.07;;
7971;SDS011;4031;49.758;6.120;2022-12-18T07:39:10;8.30;;;6.37;;
7971;SDS011;4031;49.758;6.120;2022-12-18T07:41:36;7.18;;;4.13;;
7971;SDS011;4031;49.758;6.120;2022-12-18T07:44:02;2.90;;;2.70;;
7971;SDS011;4031;49.758;6.120;2022-12-18T07:46:28;8.50;;;4.43;;
7971;SDS011;4031;49.758;6.120;2022-12-18T07:48:54;6.03;;;5.53;;
7971;SDS011;4031;49.758;6.120;2022-12-18T07:51:20;14.13;;;6.13;;
7971;SDS011;4031;49.758;6.120;2022-12-18T07:53:46;5.20;;;4.00;;
7971;SDS011;4031;49.758;6.120;2022-12-18T07:56:12;7.95;;;2.78;;
7971;SDS011;4031;49.758;6.120;2022-12-18T07:58:38;4.50;;;4.30;;
7971;SDS011;4031;49.758;6.120;2022-12-18T08:01:05;3.90;;;3.60;;
7971;SDS011;4031;49.758;6.120;2022-12-18T08:03:33;7.20;;;4.90;;
7971;SDS011;4031;49.758;6.120;2022-12-18T08:06:03;11.98;;;5.13;;
7971;SDS011;4031;49.758;6.120;2022-12-18T08:08:31;5.13;;;4.55;;
7971;SDS011;4031;49.758;6.120;2022-12-18T08:10:58;5.32;;;4.82;;
7971;SDS011;4031;49.758;6.120;2022-12-18T08:13:25;6.30;;;2.72;;
7971;SDS011;4031;49.758;6.120;2022-12-18T08:15:58;8.98;;;7.15;;
7971;SDS011;4031;49.758;6.120;2022-12-18T08:18:31;7.63;;;6.10;;
7971;SDS011;4031;49.758;6.120;2022-12-18T08:21:09;7.70;;;4.75;;
7971;SDS011;4031;49.758;6.120;2022-12-18T08:23:40;8.05;;;5.20;;
7971;SDS011;4031;49.758;6.120;2022-12-18T08:26:07;5.50;;;4.17;;
7971;SDS011;4031;49.758;6.120;2022-12-18T08:28:33;5.38;;;5.07;;
7971;SDS011;4031;49.758;6.120;2022-12-18T08:30:59;10.85;;;6.25;;
7971;SDS011;4031;49.758;6.120;2022-12-18T08:33:25;7.10;;;5.40;;
7971;SDS011;4031;49.758;6.120;2022-12-18T08:35:52;8.93;;;4.65;;
7971;SDS011;4031;49.758;6.120;2022-12-18T08:38:18;4.25;;;3.67;;
7971;SDS011;4031;49.758;6.120;2022-12-18T08:40:44;6.97;;;5.17;;
7971;SDS011;4031;49.758;6.120;2022-12-18T08:43:10;6.35;;;5.82;;
7971;SDS011;4031;49.758;6.120;2022-12-18T08:45:55;15.73;;;5.90;;
7971;SDS011;4031;49.758;6.120;2022-12-18T08:48:21;13.68;;;4.40;;
7971;SDS011;4031;49.758;6.120;2022-12-18T08:50:56;5.10;;;4.65;;
7971;SDS011;4031;49.758;6.120;2022-12-18T08:53:24;6.88;;;4.57;;
7971;SDS011;4031;49.758;6.120;2022-12-18T08:55:51;7.57;;;5.07;;
7971;SDS011;4031;49.758;6.120;2022-12-18T08:58:17;7.45;;;5.03;;
7971;SDS011;4031;49.758;6.120;2022-12-18T09:00:43;9.90;;;6.30;;
7971;SDS011;4031;49.758;6.120;2022-12-18T09:03:12;5.97;;;4.50;;
7971;SDS011;4031;49.758;6.120;2022-12-18T09:05:43;8.32;;;6.85;;
7971;SDS011;4031;49.758;6.120;2022-12-18T09:08:10;7.72;;;6.25;;
7971;SDS011;4031;49.758;6.120;2022-12-18T09:10:43;10.40;;;5.73;;
7971;SDS011;4031;49.758;6.120;2022-12-18T09:13:10;7.10;;;5.57;;
7971;SDS011;4031;49.758;6.120;2022-12-18T09:15:43;16.95;;;9.10;;
7971;SDS011;4031;49.758;6.120;2022-12-18T09:18:15;10.50;;;6.15;;
7971;SDS011;4031;49.758;6.120;2022-12-18T09:20:42;5.70;;;5.30;;
7971;SDS011;4031;49.758;6.120;2022-12-18T09:23:08;14.75;;;8.20;;
7971;SDS011;4031;49.758;6.120;2022-12-18T09:25:34;7.63;;;6.38;;
7971;SDS011;4031;49.758;6.120;2022-12-18T09:28:02;9.50;;;7.43;;
7971;SDS011;4031;49.758;6.120;2022-12-18T09:30:39;8.40;;;7.00;;
7971;SDS011;4031;49.758;6.120;2022-12-18T09:33:08;7.65;;;6.47;;
7971;SDS011;4031;49.758;6.120;2022-12-18T09:35:37;6.47;;;5.40;;
7971;SDS011;4031;49.758;6.120;2022-12-18T09:38:04;15.10;;;7.13;;
7971;SDS011;4031;49.758;6.120;2022-12-18T09:40:33;10.02;;;8.65;;
7971;SDS011;4031;49.758;6.120;2022-12-18T09:43:03;10.45;;;6.82;;
7971;SDS011;4031;49.758;6.120;2022-12-18T09:45:31;25.40;;;7.13;;
7971;SDS011;4031;49.758;6.120;2022-12-18T09:48:09;13.43;;;6.15;;
7971;SDS011;4031;49.758;6.120;2022-12-18T09:50:43;11.07;;;7.68;;
7971;SDS011;4031;49.758;6.120;2022-12-18T09:53:12;10.98;;;8.30;;
7971;SDS011;4031;49.758;6.120;2022-12-18T09:55:45;9.52;;;6.70;;
7971;SDS011;4031;49.758;6.120;2022-12-18T09:58:34;11.80;;;9.15;;
7971;SDS011;4031;49.758;6.120;2022-12-18T10:01:13;12.80;;;7.25;;
7971;SDS011;4031;49.758;6.120;2022-12-18T10:03:43;15.70;;;9.35;;
7971;SDS011;4031;49.758;6.120;2022-12-18T10:09:01;12.02;;;8.32;;
7971;SDS011;4031;49.758;6.120;2022-12-18T10:12:07;27.90;;;16.58;;
7971;SDS011;4031;49.758;6.120;2022-12-18T10:15:10;23.33;;;12.10;;
7971;SDS011;4031;49.758;6.120;2022-12-18T10:18:19;18.60;;;12.05;;
7971;SDS011;4031;49.758;6.120;2022-12-18T10:21:04;15.80;;;10.23;;
7971;SDS011;4031;49.758;6.120;2022-12-18T10:26:12;18.67;;;12.90;;
7971;SDS011;4031;49.758;6.120;2022-12-18T10:28:39;19.40;;;13.93;;
7971;SDS011;4031;49.758;6.120;2022-12-18T10:31:07;15.60;;;11.70;;
7971;SDS011;4031;49.758;6.120;2022-12-18T10:33:47;19.65;;;13.70;;
7971;SDS011;4031;49.758;6.120;2022-12-18T10:36:13;24.27;;;15.03;;
7971;SDS011;4031;49.758;6.120;2022-12-18T10:38:39;20.70;;;13.32;;
7971;SDS011;4031;49.758;6.120;2022-12-18T10:43:47;24.40;;;14.05;;
7971;SDS011;4031;49.758;6.120;2022-12-18T10:46:16;19.33;;;12.32;;
7971;SDS011;4031;49.758;6.120;2022-12-18T10:51:23;30.13;;;17.70;;
7971;SDS011;4031;49.758;6.120;2022-12-18T10:54:03;40.60;;;22.40;;
7971;SDS011;4031;49.758;6.120;2022-12-18T10:56:35;32.40;;;19.55;;
7971;SDS011;4031;49.758;6.120;2022-12-18T10:59:06;29.10;;;17.50;;
7971;SDS011;4031;49.758;6.120;2022-12-18T11:01:46;31.23;;;18.83;;
7971;SDS011;4031;49.758;6.120;2022-12-18T11:04:17;23.50;;;15.95;;
7971;SDS011;4031;49.758;6.120;2022-12-18T11:07:05;18.23;;;13.45;;
7971;SDS011;4031;49.758;6.120;2022-12-18T11:09:33;20.13;;;14.50;;
7971;SDS011;4031;49.758;6.120;2022-12-18T11:12:02;30.65;;;20.60;;
7971;SDS011;4031;49.758;6.120;2022-12-18T11:14:42;31.02;;;18.52;;
7971;SDS011;4031;49.758;6.120;2022-12-18T11:17:33;26.38;;;17.35;;
7971;SDS011;4031;49.758;6.120;2022-12-18T11:20:01;30.83;;;16.02;;
7971;SDS011;4031;49.758;6.120;2022-12-18T11:22:32;28.20;;;17.55;;
7971;SDS011;4031;49.758;6.120;2022-12-18T11:25:01;24.30;;;17.50;;
7971;SDS011;4031;49.758;6.120;2022-12-18T11:27:36;28.93;;;17.27;;
7971;SDS011;4031;49.758;6.120;2022-12-18T11:30:07;30.52;;;18.92;;
7971;SDS011;4031;49.758;6.120;2022-12-18T11:32:40;31.03;;;16.90;;
7971;SDS011;4031;49.758;6.120;2022-12-18T11:44:08;26.70;;;17.30;;
7971;SDS011;4031;49.758;6.120;2022-12-18T11:46:43;25.63;;;15.70;;
7971;SDS011;4031;49.758;6.120;2022-12-18T11:49:20;22.77;;;16.60;;
7971;SDS011;4031;49.758;6.120;2022-12-18T11:54:31;24.73;;;16.70;;
7971;SDS011;4031;49.758;6.120;2022-12-18T12:00:19;23.60;;;15.50;;
7971;SDS011;4031;49.758;6.120;2022-12-18T12:14:31;22.57;;;15.63;;
7971;SDS011;4031;49.758;6.120;2022-12-18T12:28:38;24.27;;;14.63;;
7971;SDS011;4031;49.758;6.120;2022-12-18T12:31:45;26.43;;;15.20;;
7971;SDS011;4031;49.758;6.120;2022-12-18T12:40:37;28.40;;;15.40;;
7971;SDS011;4031;49.758;6.120;2022-12-18T12:43:15;26.15;;;14.77;;
7971;SDS011;4031;49.758;6.120;2022-12-18T12:46:15;31.47;;;14.90;;
7971;SDS011;4031;49.758;6.120;2022-12-18T12:48:47;24.70;;;14.60;;
7971;SDS011;4031;49.758;6.120;2022-12-18T12:51:24;19.67;;;13.03;;
7971;SDS011;4031;49.758;6.120;2022-12-18T12:54:00;23.20;;;14.27;;
7971;SDS011;4031;49.758;6.120;2022-12-18T12:56:45;24.33;;;14.27;;
7971;SDS011;4031;49.758;6.120;2022-12-18T12:59:50;26.27;;;14.10;;
7971;SDS011;4031;49.758;6.120;2022-12-18T13:02:42;27.17;;;16.20;;
7971;SDS011;4031;49.758;6.120;2022-12-18T13:05:34;27.20;;;15.17;;
7971;SDS011;4031;49.758;6.120;2022-12-18T13:08:32;22.70;;;13.50;;
7971;SDS011;4031;49.758;6.120;2022-12-18T13:11:30;25.63;;;13.87;;
7971;SDS011;4031;49.758;6.120;2022-12-18T13:14:30;24.87;;;14.27;;
7971;SDS011;4031;49.758;6.120;2022-12-18T13:19:50;22.43;;;14.37;;
7971;SDS011;4031;49.758;6.120;2022-12-18T13:22:38;27.87;;;18.20;;
7971;SDS011;4031;49.758;6.120;2022-12-18T13:25:26;23.63;;;14.27;;
7971;SDS011;4031;49.758;6.120;2022-12-18T13:28:06;25.57;;;15.80;;
7971;SDS011;4031;49.758;6.120;2022-12-18T13:35:53;25.77;;;16.10;;
7971;SDS011;4031;49.758;6.120;2022-12-18T13:38:42;23.02;;;15.13;;
7971;SDS011;4031;49.758;6.120;2022-12-18T13:43:57;27.95;;;16.13;;
7971;SDS011;4031;49.758;6.120;2022-12-18T13:47:01;23.35;;;14.73;;
7971;SDS011;4031;49.758;6.120;2022-12-18T13:49:39;29.05;;;16.25;;
7971;SDS011;4031;49.758;6.120;2022-12-18T13:52:19;35.20;;;18.10;;
7971;SDS011;4031;49.758;6.120;2022-12-18T13:55:00;29.30;;;17.52;;
7971;SDS011;4031;49.758;6.120;2022-12-18T13:57:31;27.50;;;13.90;;
7971;SDS011;4031;49.758;6.120;2022-12-18T14:02:46;32.22;;;15.88;;
7971;SDS011;4031;49.758;6.120;2022-12-18T14:05:25;27.37;;;17.23;;
7971;SDS011;4031;49.758;6.120;2022-12-18T14:08:01;26.40;;;14.35;;
7971;SDS011;4031;49.758;6.120;2022-12-18T14:10:35;26.25;;;14.60;;
7971;SDS011;4031;49.758;6.120;2022-12-18T14:13:06;29.70;;;17.88;;
7971;SDS011;4031;49.758;6.120;2022-12-18T14:15:38;24.33;;;17.30;;
7971;SDS011;4031;49.758;6.120;2022-12-18T14:18:23;30.98;;;17.75;;
7971;SDS011;4031;49.758;6.120;2022-12-18T14:21:16;14.02;;;8.70;;
7971;SDS011;4031;49.758;6.120;2022-12-18T14:23:48;24.88;;;14.70;;
7971;SDS011;4031;49.758;6.120;2022-12-18T14:26:31;26.52;;;16.20;;
7971;SDS011;4031;49.758;6.120;2022-12-18T14:28:59;31.80;;;18.38;;
7971;SDS011;4031;49.758;6.120;2022-12-18T14:32:03;32.67;;;17.65;;
7971;SDS011;4031;49.758;6.120;2022-12-18T14:34:43;25.40;;;15.93;;
7971;SDS011;4031;49.758;6.120;2022-12-18T14:37:12;29.45;;;18.05;;
7971;SDS011;4031;49.758;6.120;2022-12-18T14:39:51;28.20;;;16.15;;
7971;SDS011;4031;49.758;6.120;2022-12-18T14:42:22;31.55;;;18.75;;
7971;SDS011;4031;49.758;6.120;2022-12-18T14:45:17;22.58;;;14.63;;
7971;SDS011;4031;49.758;6.120;2022-12-18T14:47:57;26.25;;;13.77;;
7971;SDS011;4031;49.758;6.120;2022-12-18T14:50:24;27.15;;;16.52;;
7971;SDS011;4031;49.758;6.120;2022-12-18T14:52:51;30.13;;;16.95;;
7971;SDS011;4031;49.758;6.120;2022-12-18T14:55:17;34.95;;;18.00;;
7971;SDS011;4031;49.758;6.120;2022-12-18T14:57:45;32.30;;;16.38;;
7971;SDS011;4031;49.758;6.120;2022-12-18T15:00:19;30.23;;;17.33;;
7971;SDS011;4031;49.758;6.120;2022-12-18T15:02:49;27.30;;;11.65;;
7971;SDS011;4031;49.758;6.120;2022-12-18T15:05:28;30.33;;;18.45;;
7971;SDS011;4031;49.758;6.120;2022-12-18T15:07:56;26.58;;;16.80;;
7971;SDS011;4031;49.758;6.120;2022-12-18T15:10:25;25.42;;;16.42;;
7971;SDS011;4031;49.758;6.120;2022-12-18T15:15:46;28.55;;;15.90;;
7971;SDS011;4031;49.758;6.120;2022-12-18T15:18:13;30.55;;;16.58;;
7971;SDS011;4031;49.758;6.120;2022-12-18T15:20:49;33.65;;;18.33;;
7971;SDS011;4031;49.758;6.120;2022-12-18T15:23:28;31.95;;;15.75;;
7971;SDS011;4031;49.758;6.120;2022-12-18T15:26:11;27.23;;;16.25;;
7971;SDS011;4031;49.758;6.120;2022-12-18T15:28:44;24.35;;;15.35;;
7971;SDS011;4031;49.758;6.120;2022-12-18T15:33:38;28.13;;;16.33;;
7971;SDS011;4031;49.758;6.120;2022-12-18T15:36:11;26.60;;;15.82;;
7971;SDS011;4031;49.758;6.120;2022-12-18T15:38:41;31.08;;;18.63;;
7971;SDS011;4031;49.758;6.120;2022-12-18T15:41:16;31.02;;;18.48;;
7971;SDS011;4031;49.758;6.120;2022-12-18T15:43:44;37.58;;;18.55;;
7971;SDS011;4031;49.758;6.120;2022-12-18T15:46:15;33.28;;;18.67;;
7971;SDS011;4031;49.758;6.120;2022-12-18T15:48:52;29.13;;;17.33;;
7971;SDS011;4031;49.758;6.120;2022-12-18T15:53:59;34.22;;;18.73;;
7971;SDS011;4031;49.758;6.120;2022-12-18T15:56:26;37.58;;;19.85;;
7971;SDS011;4031;49.758;6.120;2022-12-18T15:59:11;27.42;;;16.85;;
7971;SDS011;4031;49.758;6.120;2022-12-18T16:01:49;31.35;;;19.10;;
7971;SDS011;4031;49.758;6.120;2022-12-18T16:04:18;34.80;;;18.67;;
7971;SDS011;4031;49.758;6.120;2022-12-18T16:06:45;32.30;;;17.45;;
7971;SDS011;4031;49.758;6.120;2022-12-18T16:09:12;27.08;;;17.77;;
7971;SDS011;4031;49.758;6.120;2022-12-18T16:11:38;24.93;;;17.33;;
7971;SDS011;4031;49.758;6.120;2022-12-18T16:14:19;36.65;;;20.10;;
7971;SDS011;4031;49.758;6.120;2022-12-18T16:16:52;31.67;;;18.10;;
7971;SDS011;4031;49.758;6.120;2022-12-18T16:19:21;41.20;;;20.85;;
7971;SDS011;4031;49.758;6.120;2022-12-18T16:21:48;36.05;;;19.08;;
7971;SDS011;4031;49.758;6.120;2022-12-18T16:24:19;33.58;;;19.58;;
7971;SDS011;4031;49.758;6.120;2022-12-18T16:26:48;36.13;;;19.15;;
7971;SDS011;4031;49.758;6.120;2022-12-18T16:29:16;46.83;;;22.00;;
7971;SDS011;4031;49.758;6.120;2022-12-18T16:31:43;29.92;;;18.15;;
7971;SDS011;4031;49.758;6.120;2022-12-18T16:34:10;37.45;;;18.95;;
7971;SDS011;4031;49.758;6.120;2022-12-18T16:36:40;30.25;;;16.73;;
7971;SDS011;4031;49.758;6.120;2022-12-18T16:39:05;24.73;;;16.30;;
7971;SDS011;4031;49.758;6.120;2022-12-18T16:41:31;31.43;;;18.23;;
7971;SDS011;4031;49.758;6.120;2022-12-18T16:43:57;34.17;;;18.00;;
7971;SDS011;4031;49.758;6.120;2022-12-18T16:46:26;29.75;;;17.63;;
7971;SDS011;4031;49.758;6.120;2022-12-18T16:48:52;26.40;;;17.73;;
7971;SDS011;4031;49.758;6.120;2022-12-18T16:51:18;34.63;;;20.10;;
7971;SDS011;4031;49.758;6.120;2022-12-18T16:53:44;35.07;;;20.37;;
7971;SDS011;4031;49.758;6.120;2022-12-18T16:56:09;35.03;;;18.47;;
7971;SDS011;4031;49.758;6.120;2022-12-18T16:58:35;37.63;;;18.10;;
7971;SDS011;4031;49.758;6.120;2022-12-18T17:01:01;36.20;;;20.57;;
7971;SDS011;4031;49.758;6.120;2022-12-18T17:03:32;39.38;;;20.05;;
7971;SDS011;4031;49.758;6.120;2022-12-18T17:06:01;37.13;;;18.10;;
7971;SDS011;4031;49.758;6.120;2022-12-18T17:08:28;28.40;;;18.98;;
7971;SDS011;4031;49.758;6.120;2022-12-18T17:10:54;35.53;;;19.60;;